sensor_id;sensor_type;location;lat;lon;timestamp;P1;durP1;ratioP1;P2;durP2;ratioP2
3343;SDS011;1685;53.104;8.228;2023-07-22T00:02:20;12.90;;;8.47;;
3343;SDS011;1685;53.104;8.228;2023-07-22T00:04:47;15.17;;;7.90;;
3343;SDS011;1685;53.104;8.228;2023-07-22T00:07:15;11.93;;;7.80;;
3343;SDS011;1685;53.104;8.228;2023-07-22T00:09:42;10.70;;;7.33;;
3343;SDS011;1685;53.104;8.228;2023-07-22T00:12:09;12.17;;;7.73;;
3343;SDS011;1685;53.104;8.228;2023-07-22T00:14:40;19.50;;;8.87;;
3343;SDS011;1685;53.104;8.228;2023-07-22T00:17:07;12.37;;;7.10;;
3343;SDS011;1685;53.104;8.228;2023-07-22T00:19:35;10.93;;;8.20;;
3343;SDS011;1685;53.104;8.228;2023-07-22T00:22:02;11.83;;;8.00;;
3343;SDS011;1685;53.104;8.228;2023-07-22T00:24:29;12.97;;;7.43;;
3343;SDS011;1685;53.104;8.228;2023-07-22T00:26:56;11.43;;;6.83;;
3343;SDS011;1685;53.104;8.228;2023-07-22T00:29:23;12.13;;;7.53;;
3343;SDS011;1685;53.104;8.228;2023-07-22T00:31:52;9.83;;;7.40;;
3343;SDS011;1685;53.104;8.228;2023-07-22T00:34:19;10.20;;;7.03;;
3343;SDS011;1685;53.104;8.228;2023-07-22T00:36:48;9.77;;;6.70;;
3343;SDS011;1685;53.104;8.228;2023-07-22T00:39:15;12.47;;;7.43;;
3343;SDS011;1685;53.104;8.228;2023-07-22T00:41:43;12.73;;;8.00;;
3343;SDS011;1685;53.104;8.228;2023-07-22T00:44:10;12.73;;;7.43;;
3343;SDS011;1685;53.104;8.228;2023-07-22T00:46:38;19.87;;;7.50;;
3343;SDS011;1685;53.104;8.228;2023-07-22T00:49:07;9.60;;;7.60;;
3343;SDS011;1685;53.104;8.228;2023-07-22T00:51:34;15.23;;;8.10;;
3343;SDS011;1685;53.104;8.228;2023-07-22T00:54:01;14.77;;;7.33;;
3343;SDS011;1685;53.104;8.228;2023-07-22T00:56:30;9.37;;;7.23;;
3343;SDS011;1685;53.104;8.228;2023-07-22T00:58:59;9.80;;;7.10;;
3343;SDS011;1685;53.104;8.228;2023-07-22T01:01:26;17.13;;;7.30;;
3343;SDS011;1685;53.104;8.228;2023-07-22T01:03:53;9.90;;;7.30;;
3343;SDS011;1685;53.104;8.228;2023-07-22T01:06:22;16.07;;;8.10;;
3343;SDS011;1685;53.104;8.228;2023-07-22T01:08:50;12.93;;;7.13;;
3343;SDS011;1685;53.104;8.228;2023-07-22T01:11:18;17.53;;;7.50;;
3343;SDS011;1685;53.104;8.228;2023-07-22T01:13:45;11.00;;;7.10;;
3343;SDS011;1685;53.104;8.228;2023-07-22T01:16:12;14.70;;;7.30;;
3343;SDS011;1685;53.104;8.228;2023-07-22T01:18:39;14.07;;;7.80;;
3343;SDS011;1685;53.104;8.228;2023-07-22T01:21:06;12.33;;;7.47;;
3343;SDS011;1685;53.104;8.228;2023-07-22T01:23:35;15.03;;;7.10;;
3343;SDS011;1685;53.104;8.228;2023-07-22T01:26:02;16.60;;;7.97;;
3343;SDS011;1685;53.104;8.228;2023-07-22T01:28:29;19.00;;;8.23;;
3343;SDS011;1685;53.104;8.228;2023-07-22T01:30:56;8.77;;;6.60;;
3343;SDS011;1685;53.104;8.228;2023-07-22T01:33:23;15.13;;;7.20;;
3343;SDS011;1685;53.104;8.228;2023-07-22T01:35:52;13.80;;;8.30;;
3343;SDS011;1685;53.104;8.228;2023-07-22T01:38:19;14.20;;;7.20;;
3343;SDS011;1685;53.104;8.228;2023-07-22T01:40:48;13.37;;;7.80;;
3343;SDS011;1685;53.104;8.228;2023-07-22T01:43:15;12.90;;;7.93;;
3343;SDS011;1685;53.104;8.228;2023-07-22T01:45:42;14.03;;;7.67;;
3343;SDS011;1685;53.104;8.228;2023-07-22T01:48:09;15.40;;;7.90;;
3343;SDS011;1685;53.104;8.228;2023-07-22T01:50:36;12.53;;;6.80;;
3343;SDS011;1685;53.104;8.228;2023-07-22T01:53:03;12.40;;;7.63;;
3343;SDS011;1685;53.104;8.228;2023-07-22T01:55:31;16.50;;;7.53;;
3343;SDS011;1685;53.104;8.228;2023-07-22T01:58:00;14.07;;;7.57;;
3343;SDS011;1685;53.104;8.228;2023-07-22T02:00:27;13.03;;;8.23;;
3343;SDS011;1685;53.104;8.228;2023-07-22T02:02:54;12.73;;;7.77;;
3343;SDS011;1685;53.104;8.228;2023-07-22T02:05:21;15.80;;;8.30;;
3343;SDS011;1685;53.104;8.228;2023-07-22T02:07:48;16.50;;;8.27;;
3343;SDS011;1685;53.104;8.228;2023-07-22T02:10:15;17.70;;;7.73;;
3343;SDS011;1685;53.104;8.228;2023-07-22T02:12:43;16.23;;;8.37;;
3343;SDS011;1685;53.104;8.228;2023-07-22T02:15:11;14.20;;;8.00;;
3343;SDS011;1685;53.104;8.228;2023-07-22T02:17:38;15.43;;;8.37;;
3343;SDS011;1685;53.104;8.228;2023-07-22T02:20:05;15.73;;;8.30;;
3343;SDS011;1685;53.104;8.228;2023-07-22T02:22:34;21.97;;;8.23;;
3343;SDS011;1685;53.104;8.228;2023-07-22T02:25:01;18.10;;;8.30;;
3343;SDS011;1685;53.104;8.228;2023-07-22T02:27:29;9.27;;;6.87;;
3343;SDS011;1685;53.104;8.228;2023-07-22T02:29:56;17.37;;;7.60;;
3343;SDS011;1685;53.104;8.228;2023-07-22T02:32:24;16.23;;;8.23;;
3343;SDS011;1685;53.104;8.228;2023-07-22T02:34:51;13.00;;;7.23;;
3343;SDS011;1685;53.104;8.228;2023-07-22T02:37:18;7.83;;;6.77;;
3343;SDS011;1685;53.104;8.228;2023-07-22T02:39:45;16.90;;;8.93;;
3343;SDS011;1685;53.104;8.228;2023-07-22T02:42:12;16.53;;;7.70;;
3343;SDS011;1685;53.104;8.228;2023-07-22T02:44:39;15.83;;;8.17;;
3343;SDS011;1685;53.104;8.228;2023-07-22T02:47:06;13.23;;;8.17;;
3343;SDS011;1685;53.104;8.228;2023-07-22T02:49:35;13.77;;;7.90;;
3343;SDS011;1685;53.104;8.228;2023-07-22T02:52:02;18.40;;;8.63;;
3343;SDS011;1685;53.104;8.228;2023-07-22T02:54:29;12.67;;;6.57;;
3343;SDS011;1685;53.104;8.228;2023-07-22T02:56:56;12.87;;;8.10;;
3343;SDS011;1685;53.104;8.228;2023-07-22T02:59:23;14.27;;;8.37;;
3343;SDS011;1685;53.104;8.228;2023-07-22T03:01:50;16.27;;;8.00;;
3343;SDS011;1685;53.104;8.228;2023-07-22T03:04:18;14.23;;;8.50;;
3343;SDS011;1685;53.104;8.228;2023-07-22T03:06:46;18.37;;;9.13;;
3343;SDS011;1685;53.104;8.228;2023-07-22T03:09:13;23.00;;;10.20;;
3343;SDS011;1685;53.104;8.228;2023-07-22T03:11:40;11.10;;;6.93;;
3343;SDS011;1685;53.104;8.228;2023-07-22T03:14:07;14.87;;;8.43;;
3343;SDS011;1685;53.104;8.228;2023-07-22T03:16:35;17.93;;;8.37;;
3343;SDS011;1685;53.104;8.228;2023-07-22T03:19:02;16.57;;;8.57;;
3343;SDS011;1685;53.104;8.228;2023-07-22T03:21:29;15.57;;;8.50;;
3343;SDS011;1685;53.104;8.228;2023-07-22T03:23:57;15.93;;;7.40;;
3343;SDS011;1685;53.104;8.228;2023-07-22T03:26:24;13.83;;;8.60;;
3343;SDS011;1685;53.104;8.228;2023-07-22T03:28:51;14.33;;;7.70;;
3343;SDS011;1685;53.104;8.228;2023-07-22T03:31:18;19.97;;;8.87;;
3343;SDS011;1685;53.104;8.228;2023-07-22T03:33:45;14.03;;;8.07;;
3343;SDS011;1685;53.104;8.228;2023-07-22T03:36:13;16.70;;;7.53;;
3343;SDS011;1685;53.104;8.228;2023-07-22T03:38:41;17.17;;;8.53;;
3343;SDS011;1685;53.104;8.228;2023-07-22T03:41:09;13.97;;;7.77;;
3343;SDS011;1685;53.104;8.228;2023-07-22T03:43:36;17.40;;;7.77;;
3343;SDS011;1685;53.104;8.228;2023-07-22T03:46:03;14.67;;;8.37;;
3343;SDS011;1685;53.104;8.228;2023-07-22T03:48:30;16.57;;;8.23;;
3343;SDS011;1685;53.104;8.228;2023-07-22T03:50:57;16.93;;;8.00;;
3343;SDS011;1685;53.104;8.228;2023-07-22T03:53:24;20.90;;;8.73;;
3343;SDS011;1685;53.104;8.228;2023-07-22T03:55:51;16.37;;;7.40;;
3343;SDS011;1685;53.104;8.228;2023-07-22T03:58:20;17.67;;;8.60;;
3343;SDS011;1685;53.104;8.228;2023-07-22T04:00:48;11.57;;;7.37;;
3343;SDS011;1685;53.104;8.228;2023-07-22T04:03:15;18.87;;;8.17;;
3343;SDS011;1685;53.104;8.228;2023-07-22T04:05:42;14.93;;;7.80;;
3343;SDS011;1685;53.104;8.228;2023-07-22T04:08:09;12.67;;;6.87;;
3343;SDS011;1685;53.104;8.228;2023-07-22T04:10:36;12.40;;;7.87;;
3343;SDS011;1685;53.104;8.228;2023-07-22T04:13:03;18.83;;;8.37;;
3343;SDS011;1685;53.104;8.228;2023-07-22T04:15:32;17.83;;;7.50;;
3343;SDS011;1685;53.104;8.228;2023-07-22T04:17:59;16.60;;;8.43;;
3343;SDS011;1685;53.104;8.228;2023-07-22T04:20:26;13.37;;;7.67;;
3343;SDS011;1685;53.104;8.228;2023-07-22T04:22:53;38.37;;;8.37;;
3343;SDS011;1685;53.104;8.228;2023-07-22T04:25:20;18.60;;;8.30;;
3343;SDS011;1685;53.104;8.228;2023-07-22T04:27:47;15.83;;;7.43;;
3343;SDS011;1685;53.104;8.228;2023-07-22T04:30:14;13.10;;;7.60;;
3343;SDS011;1685;53.104;8.228;2023-07-22T04:32:47;13.60;;;8.33;;
3343;SDS011;1685;53.104;8.228;2023-07-22T04:35:14;16.00;;;8.43;;
3343;SDS011;1685;53.104;8.228;2023-07-22T04:37:42;16.30;;;8.20;;
3343;SDS011;1685;53.104;8.228;2023-07-22T04:40:10;13.70;;;7.97;;
3343;SDS011;1685;53.104;8.228;2023-07-22T04:42:39;19.20;;;9.40;;
3343;SDS011;1685;53.104;8.228;2023-07-22T04:45:07;14.90;;;7.87;;
3343;SDS011;1685;53.104;8.228;2023-07-22T04:47:35;21.87;;;8.27;;
3343;SDS011;1685;53.104;8.228;2023-07-22T04:50:05;18.20;;;8.63;;
3343;SDS011;1685;53.104;8.228;2023-07-22T04:52:34;17.27;;;8.57;;
3343;SDS011;1685;53.104;8.228;2023-07-22T04:55:01;17.40;;;8.93;;
3343;SDS011;1685;53.104;8.228;2023-07-22T04:57:33;16.87;;;8.73;;
3343;SDS011;1685;53.104;8.228;2023-07-22T05:00:00;15.17;;;7.40;;
3343;SDS011;1685;53.104;8.228;2023-07-22T05:02:29;19.03;;;8.50;;
3343;SDS011;1685;53.104;8.228;2023-07-22T05:04:56;15.03;;;8.37;;
3343;SDS011;1685;53.104;8.228;2023-07-22T05:07:25;20.33;;;9.47;;
3343;SDS011;1685;53.104;8.228;2023-07-22T05:09:51;11.87;;;7.30;;
3343;SDS011;1685;53.104;8.228;2023-07-22T05:12:19;18.93;;;9.07;;
3343;SDS011;1685;53.104;8.228;2023-07-22T05:14:46;19.00;;;8.07;;
3343;SDS011;1685;53.104;8.228;2023-07-22T05:17:13;15.50;;;8.50;;
3343;SDS011;1685;53.104;8.228;2023-07-22T05:19:40;15.80;;;7.83;;
3343;SDS011;1685;53.104;8.228;2023-07-22T05:22:07;15.00;;;8.50;;
3343;SDS011;1685;53.104;8.228;2023-07-22T05:24:36;14.87;;;8.07;;
3343;SDS011;1685;53.104;8.228;2023-07-22T05:27:03;23.40;;;8.90;;
3343;SDS011;1685;53.104;8.228;2023-07-22T05:29:30;15.23;;;8.70;;
3343;SDS011;1685;53.104;8.228;2023-07-22T05:31:57;12.27;;;7.93;;
3343;SDS011;1685;53.104;8.228;2023-07-22T05:34:24;14.10;;;8.40;;
3343;SDS011;1685;53.104;8.228;2023-07-22T05:36:51;15.50;;;8.03;;
3343;SDS011;1685;53.104;8.228;2023-07-22T05:39:18;13.13;;;6.53;;
3343;SDS011;1685;53.104;8.228;2023-07-22T05:41:47;12.03;;;6.60;;
3343;SDS011;1685;53.104;8.228;2023-07-22T05:44:13;17.77;;;7.00;;
3343;SDS011;1685;53.104;8.228;2023-07-22T05:46:41;13.37;;;8.10;;
3343;SDS011;1685;53.104;8.228;2023-07-22T05:49:08;16.57;;;7.80;;
3343;SDS011;1685;53.104;8.228;2023-07-22T05:51:35;14.40;;;7.90;;
3343;SDS011;1685;53.104;8.228;2023-07-22T05:54:02;14.60;;;8.50;;
3343;SDS011;1685;53.104;8.228;2023-07-22T05:56:30;22.43;;;8.50;;
3343;SDS011;1685;53.104;8.228;2023-07-22T05:58:59;19.47;;;9.07;;
3343;SDS011;1685;53.104;8.228;2023-07-22T06:01:25;15.80;;;8.43;;
3343;SDS011;1685;53.104;8.228;2023-07-22T06:03:52;14.00;;;8.43;;
3343;SDS011;1685;53.104;8.228;2023-07-22T06:06:20;13.00;;;7.00;;
3343;SDS011;1685;53.104;8.228;2023-07-22T06:08:47;12.00;;;6.90;;
3343;SDS011;1685;53.104;8.228;2023-07-22T06:11:14;13.50;;;7.60;;
3343;SDS011;1685;53.104;8.228;2023-07-22T06:13:41;11.60;;;7.53;;
3343;SDS011;1685;53.104;8.228;2023-07-22T06:16:09;17.33;;;8.40;;
3343;SDS011;1685;53.104;8.228;2023-07-22T06:18:37;11.50;;;6.37;;
3343;SDS011;1685;53.104;8.228;2023-07-22T06:21:04;10.80;;;6.97;;
3343;SDS011;1685;53.104;8.228;2023-07-22T06:23:31;14.73;;;6.97;;
3343;SDS011;1685;53.104;8.228;2023-07-22T06:25:58;12.50;;;6.63;;
3343;SDS011;1685;53.104;8.228;2023-07-22T06:28:25;13.57;;;6.13;;
3343;SDS011;1685;53.104;8.228;2023-07-22T06:30:52;12.63;;;5.50;;
3343;SDS011;1685;53.104;8.228;2023-07-22T06:33:20;15.93;;;6.90;;
3343;SDS011;1685;53.104;8.228;2023-07-22T06:35:47;9.77;;;6.23;;
3343;SDS011;1685;53.104;8.228;2023-07-22T06:38:14;10.37;;;6.87;;
3343;SDS011;1685;53.104;8.228;2023-07-22T06:40:41;10.03;;;6.07;;
3343;SDS011;1685;53.104;8.228;2023-07-22T06:43:09;10.27;;;6.67;;
3343;SDS011;1685;53.104;8.228;2023-07-22T06:45:36;11.20;;;5.97;;
3343;SDS011;1685;53.104;8.228;2023-07-22T06:48:03;10.70;;;5.80;;
3343;SDS011;1685;53.104;8.228;2023-07-22T06:50:31;11.07;;;6.30;;
3343;SDS011;1685;53.104;8.228;2023-07-22T06:52:58;11.90;;;5.97;;
3343;SDS011;1685;53.104;8.228;2023-07-22T06:55:25;12.77;;;6.50;;
3343;SDS011;1685;53.104;8.228;2023-07-22T06:57:55;11.57;;;5.70;;
3343;SDS011;1685;53.104;8.228;2023-07-22T07:00:22;9.63;;;6.13;;
3343;SDS011;1685;53.104;8.228;2023-07-22T07:02:49;11.50;;;5.73;;
3343;SDS011;1685;53.104;8.228;2023-07-22T07:05:16;11.63;;;5.10;;
3343;SDS011;1685;53.104;8.228;2023-07-22T07:07:45;6.90;;;4.93;;
3343;SDS011;1685;53.104;8.228;2023-07-22T07:10:12;8.30;;;4.67;;
3343;SDS011;1685;53.104;8.228;2023-07-22T07:12:39;7.30;;;4.20;;
3343;SDS011;1685;53.104;8.228;2023-07-22T07:15:06;9.17;;;4.37;;
3343;SDS011;1685;53.104;8.228;2023-07-22T07:17:34;7.23;;;3.90;;
3343;SDS011;1685;53.104;8.228;2023-07-22T07:20:01;6.20;;;3.87;;
3343;SDS011;1685;53.104;8.228;2023-07-22T07:22:28;7.60;;;4.70;;
3343;SDS011;1685;53.104;8.228;2023-07-22T07:24:56;3.73;;;3.40;;
3343;SDS011;1685;53.104;8.228;2023-07-22T07:27:23;9.27;;;4.33;;
3343;SDS011;1685;53.104;8.228;2023-07-22T07:29:50;6.03;;;3.37;;
3343;SDS011;1685;53.104;8.228;2023-07-22T07:32:17;7.27;;;4.60;;
3343;SDS011;1685;53.104;8.228;2023-07-22T07:34:44;7.40;;;3.83;;
3343;SDS011;1685;53.104;8.228;2023-07-22T07:37:11;6.30;;;4.93;;
3343;SDS011;1685;53.104;8.228;2023-07-22T07:39:39;4.47;;;3.93;;
3343;SDS011;1685;53.104;8.228;2023-07-22T07:42:07;7.00;;;3.37;;
3343;SDS011;1685;53.104;8.228;2023-07-22T07:44:34;9.40;;;3.53;;
3343;SDS011;1685;53.104;8.228;2023-07-22T07:47:01;4.70;;;3.50;;
3343;SDS011;1685;53.104;8.228;2023-07-22T07:49:28;7.17;;;3.33;;
3343;SDS011;1685;53.104;8.228;2023-07-22T07:51:55;6.63;;;2.90;;
3343;SDS011;1685;53.104;8.228;2023-07-22T07:54:22;5.80;;;3.50;;
3343;SDS011;1685;53.104;8.228;2023-07-22T07:56:50;5.23;;;4.47;;
3343;SDS011;1685;53.104;8.228;2023-07-22T07:59:18;4.00;;;3.13;;
3343;SDS011;1685;53.104;8.228;2023-07-22T08:01:45;5.30;;;3.33;;
3343;SDS011;1685;53.104;8.228;2023-07-22T08:04:12;6.43;;;4.20;;
3343;SDS011;1685;53.104;8.228;2023-07-22T08:06:39;6.17;;;4.53;;
3343;SDS011;1685;53.104;8.228;2023-07-22T08:09:07;7.83;;;4.50;;
3343;SDS011;1685;53.104;8.228;2023-07-22T08:11:36;11.73;;;4.73;;
3343;SDS011;1685;53.104;8.228;2023-07-22T08:14:03;6.57;;;4.87;;
3343;SDS011;1685;53.104;8.228;2023-07-22T08:16:32;7.43;;;5.10;;
3343;SDS011;1685;53.104;8.228;2023-07-22T08:18:59;9.67;;;4.70;;
3343;SDS011;1685;53.104;8.228;2023-07-22T08:21:26;9.00;;;5.50;;
3343;SDS011;1685;53.104;8.228;2023-07-22T08:23:53;11.03;;;6.17;;
3343;SDS011;1685;53.104;8.228;2023-07-22T08:26:20;10.40;;;5.90;;
3343;SDS011;1685;53.104;8.228;2023-07-22T08:28:47;10.17;;;6.30;;
3343;SDS011;1685;53.104;8.228;2023-07-22T08:31:14;10.00;;;6.80;;
3343;SDS011;1685;53.104;8.228;2023-07-22T08:33:43;11.13;;;6.93;;
3343;SDS011;1685;53.104;8.228;2023-07-22T08:36:10;15.03;;;8.17;;
3343;SDS011;1685;53.104;8.228;2023-07-22T08:38:37;10.27;;;7.17;;
3343;SDS011;1685;53.104;8.228;2023-07-22T08:41:05;7.50;;;6.30;;
3343;SDS011;1685;53.104;8.228;2023-07-22T08:43:32;11.00;;;7.10;;
3343;SDS011;1685;53.104;8.228;2023-07-22T08:46:01;11.53;;;6.87;;
3343;SDS011;1685;53.104;8.228;2023-07-22T08:48:29;12.20;;;7.60;;
3343;SDS011;1685;53.104;8.228;2023-07-22T08:51:03;10.30;;;7.60;;
3343;SDS011;1685;53.104;8.228;2023-07-22T08:53:32;11.53;;;7.37;;
3343;SDS011;1685;53.104;8.228;2023-07-22T08:56:00;13.90;;;7.57;;
3343;SDS011;1685;53.104;8.228;2023-07-22T08:58:27;16.03;;;8.40;;
3343;SDS011;1685;53.104;8.228;2023-07-22T09:00:55;13.10;;;7.57;;
3343;SDS011;1685;53.104;8.228;2023-07-22T09:03:22;14.67;;;7.50;;
3343;SDS011;1685;53.104;8.228;2023-07-22T09:05:50;14.97;;;8.13;;
3343;SDS011;1685;53.104;8.228;2023-07-22T09:08:19;13.80;;;8.67;;
3343;SDS011;1685;53.104;8.228;2023-07-22T09:10:46;12.43;;;8.43;;
3343;SDS011;1685;53.104;8.228;2023-07-22T09:13:14;11.30;;;7.50;;
3343;SDS011;1685;53.104;8.228;2023-07-22T09:15:42;12.37;;;8.37;;
3343;SDS011;1685;53.104;8.228;2023-07-22T09:18:09;18.47;;;8.23;;
3343;SDS011;1685;53.104;8.228;2023-07-22T09:20:36;9.93;;;6.67;;
3343;SDS011;1685;53.104;8.228;2023-07-22T09:23:03;19.70;;;8.90;;
3343;SDS011;1685;53.104;8.228;2023-07-22T09:25:33;12.50;;;7.60;;
3343;SDS011;1685;53.104;8.228;2023-07-22T09:28:00;11.80;;;8.40;;
3343;SDS011;1685;53.104;8.228;2023-07-22T09:30:27;14.17;;;8.80;;
3343;SDS011;1685;53.104;8.228;2023-07-22T09:32:55;14.13;;;8.83;;
3343;SDS011;1685;53.104;8.228;2023-07-22T09:35:24;18.70;;;8.57;;
3343;SDS011;1685;53.104;8.228;2023-07-22T09:37:52;11.70;;;8.20;;
3343;SDS011;1685;53.104;8.228;2023-07-22T09:40:20;12.07;;;8.17;;
3343;SDS011;1685;53.104;8.228;2023-07-22T09:42:50;13.20;;;7.80;;
3343;SDS011;1685;53.104;8.228;2023-07-22T09:45:18;8.93;;;6.67;;
3343;SDS011;1685;53.104;8.228;2023-07-22T09:47:47;15.90;;;7.00;;
3343;SDS011;1685;53.104;8.228;2023-07-22T09:50:16;9.07;;;5.70;;
3343;SDS011;1685;53.104;8.228;2023-07-22T09:52:45;8.87;;;6.00;;
3343;SDS011;1685;53.104;8.228;2023-07-22T09:55:14;8.60;;;5.87;;
3343;SDS011;1685;53.104;8.228;2023-07-22T09:57:43;9.27;;;5.93;;
3343;SDS011;1685;53.104;8.228;2023-07-22T10:00:13;9.53;;;5.20;;
3343;SDS011;1685;53.104;8.228;2023-07-22T10:02:44;6.40;;;4.87;;
3343;SDS011;1685;53.104;8.228;2023-07-22T10:05:14;6.73;;;4.90;;
3343;SDS011;1685;53.104;8.228;2023-07-22T10:07:43;10.67;;;5.70;;
3343;SDS011;1685;53.104;8.228;2023-07-22T10:10:12;7.90;;;6.00;;
3343;SDS011;1685;53.104;8.228;2023-07-22T10:12:41;7.23;;;5.47;;
3343;SDS011;1685;53.104;8.228;2023-07-22T10:15:09;8.20;;;6.07;;
3343;SDS011;1685;53.104;8.228;2023-07-22T10:17:38;10.27;;;6.60;;
3343;SDS011;1685;53.104;8.228;2023-07-22T10:20:06;7.03;;;5.90;;
3343;SDS011;1685;53.104;8.228;2023-07-22T10:22:35;7.90;;;6.33;;
3343;SDS011;1685;53.104;8.228;2023-07-22T10:25:06;8.90;;;5.33;;
3343;SDS011;1685;53.104;8.228;2023-07-22T10:27:34;6.53;;;5.00;;
3343;SDS011;1685;53.104;8.228;2023-07-22T10:30:05;9.10;;;5.23;;
3343;SDS011;1685;53.104;8.228;2023-07-22T10:32:33;8.57;;;5.70;;
3343;SDS011;1685;53.104;8.228;2023-07-22T10:35:03;8.20;;;5.43;;
3343;SDS011;1685;53.104;8.228;2023-07-22T10:37:35;11.70;;;6.00;;
3343;SDS011;1685;53.104;8.228;2023-07-22T10:40:16;5.93;;;5.30;;
3343;SDS011;1685;53.104;8.228;2023-07-22T10:42:50;8.30;;;6.00;;
3343;SDS011;1685;53.104;8.228;2023-07-22T10:45:28;8.27;;;4.90;;
3343;SDS011;1685;53.104;8.228;2023-07-22T10:48:00;6.50;;;5.47;;
3343;SDS011;1685;53.104;8.228;2023-07-22T10:50:39;7.30;;;5.20;;
3343;SDS011;1685;53.104;8.228;2023-07-22T10:53:10;7.47;;;6.00;;
3343;SDS011;1685;53.104;8.228;2023-07-22T10:58:57;7.83;;;4.93;;
3343;SDS011;1685;53.104;8.228;2023-07-22T11:01:32;7.80;;;5.40;;
3343;SDS011;1685;53.104;8.228;2023-07-22T11:04:07;7.27;;;5.67;;
3343;SDS011;1685;53.104;8.228;2023-07-22T11:06:51;6.50;;;5.60;;
3343;SDS011;1685;53.104;8.228;2023-07-22T11:09:35;8.50;;;5.80;;
3343;SDS011;1685;53.104;8.228;2023-07-22T11:12:08;7.83;;;5.50;;
3343;SDS011;1685;53.104;8.228;2023-07-22T11:14:38;9.60;;;5.70;;
3343;SDS011;1685;53.104;8.228;2023-07-22T11:17:06;6.30;;;5.70;;
3343;SDS011;1685;53.104;8.228;2023-07-22T11:19:34;7.60;;;6.20;;
3343;SDS011;1685;53.104;8.228;2023-07-22T11:22:02;8.27;;;5.23;;
3343;SDS011;1685;53.104;8.228;2023-07-22T11:24:32;7.97;;;6.50;;
3343;SDS011;1685;53.104;8.228;2023-07-22T11:26:59;12.77;;;6.63;;
3343;SDS011;1685;53.104;8.228;2023-07-22T11:29:29;13.40;;;6.17;;
3343;SDS011;1685;53.104;8.228;2023-07-22T11:31:56;9.27;;;7.07;;
3343;SDS011;1685;53.104;8.228;2023-07-22T11:34:24;10.00;;;6.40;;
3343;SDS011;1685;53.104;8.228;2023-07-22T11:36:52;12.37;;;6.40;;
3343;SDS011;1685;53.104;8.228;2023-07-22T11:39:21;9.73;;;7.13;;
3343;SDS011;1685;53.104;8.228;2023-07-22T11:41:49;11.27;;;7.53;;
3343;SDS011;1685;53.104;8.228;2023-07-22T11:44:17;11.73;;;7.97;;
3343;SDS011;1685;53.104;8.228;2023-07-22T11:46:52;11.27;;;8.53;;
3343;SDS011;1685;53.104;8.228;2023-07-22T11:49:22;12.90;;;7.70;;
3343;SDS011;1685;53.104;8.228;2023-07-22T11:51:50;14.00;;;8.30;;
3343;SDS011;1685;53.104;8.228;2023-07-22T11:54:21;12.10;;;8.50;;
3343;SDS011;1685;53.104;8.228;2023-07-22T11:56:48;18.67;;;10.20;;
3343;SDS011;1685;53.104;8.228;2023-07-22T11:59:15;13.67;;;9.30;;
3343;SDS011;1685;53.104;8.228;2023-07-22T12:01:43;24.47;;;11.17;;
3343;SDS011;1685;53.104;8.228;2023-07-22T12:04:11;16.57;;;9.63;;
3343;SDS011;1685;53.104;8.228;2023-07-22T12:06:38;16.00;;;11.23;;
3343;SDS011;1685;53.104;8.228;2023-07-22T12:09:06;15.37;;;10.73;;
3343;SDS011;1685;53.104;8.228;2023-07-22T12:11:36;16.50;;;11.57;;
3343;SDS011;1685;53.104;8.228;2023-07-22T12:14:09;16.93;;;11.27;;
3343;SDS011;1685;53.104;8.228;2023-07-22T12:16:37;12.57;;;9.40;;
3343;SDS011;1685;53.104;8.228;2023-07-22T12:19:05;14.93;;;10.67;;
3343;SDS011;1685;53.104;8.228;2023-07-22T12:21:33;16.30;;;9.50;;
3343;SDS011;1685;53.104;8.228;2023-07-22T12:24:00;10.50;;;8.57;;
3343;SDS011;1685;53.104;8.228;2023-07-22T12:26:28;15.13;;;9.90;;
3343;SDS011;1685;53.104;8.228;2023-07-22T12:28:56;13.27;;;9.67;;
3343;SDS011;1685;53.104;8.228;2023-07-22T12:31:24;13.80;;;10.03;;
3343;SDS011;1685;53.104;8.228;2023-07-22T12:33:51;10.53;;;8.17;;
3343;SDS011;1685;53.104;8.228;2023-07-22T12:36:18;14.80;;;9.67;;
3343;SDS011;1685;53.104;8.228;2023-07-22T12:38:45;13.40;;;9.00;;
3343;SDS011;1685;53.104;8.228;2023-07-22T12:41:12;14.03;;;9.10;;
3343;SDS011;1685;53.104;8.228;2023-07-22T12:43:39;13.40;;;9.77;;
3343;SDS011;1685;53.104;8.228;2023-07-22T12:46:08;12.70;;;9.47;;
3343;SDS011;1685;53.104;8.228;2023-07-22T12:48:35;12.90;;;9.50;;
3343;SDS011;1685;53.104;8.228;2023-07-22T12:51:02;17.40;;;10.30;;
3343;SDS011;1685;53.104;8.228;2023-07-22T12:53:29;16.13;;;9.63;;
3343;SDS011;1685;53.104;8.228;2023-07-22T12:55:56;13.13;;;8.20;;
3343;SDS011;1685;53.104;8.228;2023-07-22T12:58:23;10.30;;;8.57;;
3343;SDS011;1685;53.104;8.228;2023-07-22T13:00:50;12.10;;;9.03;;
3343;SDS011;1685;53.104;8.228;2023-07-22T13:03:18;12.30;;;8.83;;
3343;SDS011;1685;53.104;8.228;2023-07-22T13:05:45;14.47;;;8.47;;
3343;SDS011;1685;53.104;8.228;2023-07-22T13:08:12;12.90;;;10.30;;
3343;SDS011;1685;53.104;8.228;2023-07-22T13:10:39;11.20;;;9.13;;
3343;SDS011;1685;53.104;8.228;2023-07-22T13:13:09;13.60;;;9.83;;
3343;SDS011;1685;53.104;8.228;2023-07-22T13:15:36;13.07;;;10.10;;
3343;SDS011;1685;53.104;8.228;2023-07-22T13:18:04;15.43;;;10.30;;
3343;SDS011;1685;53.104;8.228;2023-07-22T13:20:32;13.50;;;9.27;;
3343;SDS011;1685;53.104;8.228;2023-07-22T13:22:59;12.10;;;9.53;;
3343;SDS011;1685;53.104;8.228;2023-07-22T13:25:26;11.20;;;8.57;;
3343;SDS011;1685;53.104;8.228;2023-07-22T13:27:53;14.47;;;10.57;;
3343;SDS011;1685;53.104;8.228;2023-07-22T13:30:20;12.93;;;9.00;;
3343;SDS011;1685;53.104;8.228;2023-07-22T13:32:47;13.50;;;10.40;;
3343;SDS011;1685;53.104;8.228;2023-07-22T13:35:14;10.03;;;8.57;;
3343;SDS011;1685;53.104;8.228;2023-07-22T13:37:43;10.57;;;8.63;;
3343;SDS011;1685;53.104;8.228;2023-07-22T13:40:10;12.17;;;8.90;;
3343;SDS011;1685;53.104;8.228;2023-07-22T13:42:37;13.60;;;10.50;;
3343;SDS011;1685;53.104;8.228;2023-07-22T13:45:05;12.00;;;9.43;;
3343;SDS011;1685;53.104;8.228;2023-07-22T13:47:32;12.83;;;9.90;;
3343;SDS011;1685;53.104;8.228;2023-07-22T13:49:59;17.67;;;11.37;;
3343;SDS011;1685;53.104;8.228;2023-07-22T13:52:26;13.67;;;10.30;;
3343;SDS011;1685;53.104;8.228;2023-07-22T13:54:55;14.23;;;10.20;;
3343;SDS011;1685;53.104;8.228;2023-07-22T13:57:22;12.27;;;10.07;;
3343;SDS011;1685;53.104;8.228;2023-07-22T13:59:49;10.80;;;9.27;;
3343;SDS011;1685;53.104;8.228;2023-07-22T14:02:16;11.70;;;9.10;;
3343;SDS011;1685;53.104;8.228;2023-07-22T14:04:44;13.47;;;9.40;;
3343;SDS011;1685;53.104;8.228;2023-07-22T14:07:11;13.63;;;10.13;;
3343;SDS011;1685;53.104;8.228;2023-07-22T14:09:38;13.57;;;10.20;;
3343;SDS011;1685;53.104;8.228;2023-07-22T14:12:07;12.23;;;10.53;;
3343;SDS011;1685;53.104;8.228;2023-07-22T14:14:34;16.90;;;11.03;;
3343;SDS011;1685;53.104;8.228;2023-07-22T14:17:01;14.27;;;10.47;;
3343;SDS011;1685;53.104;8.228;2023-07-22T14:19:29;16.43;;;9.73;;
3343;SDS011;1685;53.104;8.228;2023-07-22T14:21:56;13.53;;;10.07;;
3343;SDS011;1685;53.104;8.228;2023-07-22T14:24:23;13.17;;;9.97;;
3343;SDS011;1685;53.104;8.228;2023-07-22T14:26:50;14.47;;;10.60;;
3343;SDS011;1685;53.104;8.228;2023-07-22T14:29:18;13.00;;;9.30;;
3343;SDS011;1685;53.104;8.228;2023-07-22T14:31:45;14.30;;;11.13;;
3343;SDS011;1685;53.104;8.228;2023-07-22T14:34:13;14.73;;;10.77;;
3343;SDS011;1685;53.104;8.228;2023-07-22T14:36:40;11.93;;;10.30;;
3343;SDS011;1685;53.104;8.228;2023-07-22T14:39:08;13.77;;;10.17;;
3343;SDS011;1685;53.104;8.228;2023-07-22T14:41:35;12.23;;;9.70;;
3343;SDS011;1685;53.104;8.228;2023-07-22T14:44:03;11.37;;;9.20;;
3343;SDS011;1685;53.104;8.228;2023-07-22T14:46:31;11.50;;;9.23;;
3343;SDS011;1685;53.104;8.228;2023-07-22T14:48:58;12.90;;;8.47;;
3343;SDS011;1685;53.104;8.228;2023-07-22T14:51:25;14.50;;;9.30;;
3343;SDS011;1685;53.104;8.228;2023-07-22T14:53:52;13.23;;;9.20;;
3343;SDS011;1685;53.104;8.228;2023-07-22T14:56:19;11.70;;;9.17;;
3343;SDS011;1685;53.104;8.228;2023-07-22T14:58:46;9.30;;;8.30;;
3343;SDS011;1685;53.104;8.228;2023-07-22T15:01:14;11.97;;;10.10;;
3343;SDS011;1685;53.104;8.228;2023-07-22T15:03:43;9.70;;;8.47;;
3343;SDS011;1685;53.104;8.228;2023-07-22T15:06:09;12.60;;;8.23;;
3343;SDS011;1685;53.104;8.228;2023-07-22T15:08:36;13.53;;;9.20;;
3343;SDS011;1685;53.104;8.228;2023-07-22T15:11:04;8.73;;;7.70;;